Time;durP1;ratioP1;P1;durP2;ratioP2;P2;SDS_P1;SDS_P2;PMS_P1;PMS_P2;Temp;Humidity;BMP_temperature;BMP_pressure;BME280_temperature;BME280_humidity;BME280_pressure;Samples;Min_cycle;Max_cycle;Signal;HPM_P1;HPM_P2
2024/02/03 00:01:45;;;;;;;1.73;1.50;;;3.10;99.90;;;;;;5052058;28;20174;-63
2024/02/03 00:04:10;;;;;;;1.30;1.00;;;3.20;99.90;;;;;;5051960;28;20256;-63
2024/02/03 00:06:36;;;;;;;1.70;1.60;;;3.20;99.90;;;;;;5051931;28;20682;-63
2024/02/03 00:09:05;;;;;;;2.80;1.97;;;3.10;99.90;;;;;;5050701;28;20260;-63
2024/02/03 00:11:31;;;;;;;1.08;1.02;;;3.00;99.90;;;;;;5051122;28;20666;-63
2024/02/03 00:13:56;;;;;;;2.30;1.27;;;3.00;99.90;;;;;;5051922;28;20206;-63
2024/02/03 00:16:22;;;;;;;2.37;1.30;;;3.10;99.90;;;;;;5051480;28;20186;-63
2024/02/03 00:18:47;;;;;;;1.30;1.20;;;3.00;99.90;;;;;;5051732;28;20592;-63
2024/02/03 00:21:13;;;;;;;1.57;0.87;;;3.00;99.90;;;;;;5051822;28;20299;-63
2024/02/03 00:23:39;;;;;;;1.37;1.27;;;2.80;99.90;;;;;;5051715;28;20261;-63
2024/02/03 00:26:04;;;;;;;1.57;1.47;;;2.80;99.90;;;;;;5051335;28;20174;-63
2024/02/03 00:28:30;;;;;;;1.30;1.20;;;2.80;99.90;;;;;;5051767;28;20170;-63
2024/02/03 00:30:56;;;;;;;1.40;1.30;;;2.90;99.90;;;;;;5051511;28;20666;-63
2024/02/03 00:33:21;;;;;;;1.30;1.20;;;2.90;99.90;;;;;;5051500;28;20201;-63
2024/02/03 00:35:47;;;;;;;1.80;1.40;;;2.90;99.90;;;;;;5051433;28;20201;-63
2024/02/03 00:38:12;;;;;;;1.77;1.20;;;3.00;99.90;;;;;;5051493;28;20185;-63
2024/02/03 00:40:38;;;;;;;2.00;1.13;;;3.00;99.90;;;;;;5051435;28;20251;-63
2024/02/03 00:43:04;;;;;;;1.67;1.20;;;3.00;99.90;;;;;;5051508;28;20174;-63
2024/02/03 00:45:29;;;;;;;1.57;1.00;;;3.00;99.90;;;;;;5051412;28;20185;-63
2024/02/03 00:47:55;;;;;;;1.50;1.40;;;3.00;99.90;;;;;;5051480;28;20197;-63
2024/02/03 00:50:21;;;;;;;2.63;2.10;;;3.00;99.90;;;;;;5051393;28;20597;-63
2024/02/03 00:52:46;;;;;;;1.10;1.10;;;3.00;99.90;;;;;;5051562;28;20177;-63
2024/02/03 00:55:12;;;;;;;5.70;1.43;;;2.90;99.90;;;;;;5051389;28;20539;-63
2024/02/03 00:57:38;;;;;;;1.63;1.53;;;2.90;99.90;;;;;;5050995;28;20726;-63
2024/02/03 01:00:06;;;;;;;1.30;1.00;;;2.80;99.90;;;;;;5051181;28;20170;-63
2024/02/03 01:02:32;;;;;;;1.90;1.65;;;2.90;99.90;;;;;;5051210;28;20166;-63
2024/02/03 01:04:57;;;;;;;1.40;1.23;;;3.00;99.90;;;;;;5051268;28;20714;-63
2024/02/03 01:07:23;;;;;;;3.10;1.23;;;3.00;99.90;;;;;;5050896;28;20269;-63
2024/02/03 01:09:49;;;;;;;2.20;1.47;;;3.00;99.90;;;;;;5051265;28;20166;-63
2024/02/03 01:12:16;;;;;;;1.27;1.17;;;2.90;99.90;;;;;;5049610;28;20595;-63
2024/02/03 01:14:41;;;;;;;3.10;1.60;;;2.90;99.90;;;;;;5051092;28;20182;-63
2024/02/03 01:17:07;;;;;;;1.60;1.27;;;2.90;99.90;;;;;;5050641;28;20208;-63
2024/02/03 01:19:33;;;;;;;1.20;1.10;;;2.90;99.90;;;;;;5051102;28;20169;-63
2024/02/03 01:21:58;;;;;;;3.50;2.43;;;2.90;99.90;;;;;;5051877;28;20170;-63
2024/02/03 01:24:24;;;;;;;2.47;2.07;;;2.80;99.90;;;;;;5055137;28;20178;-63
2024/02/03 01:26:50;;;;;;;1.87;1.70;;;2.80;99.90;;;;;;5054695;28;20243;-63
2024/02/03 01:29:16;;;;;;;1.90;1.50;;;2.80;99.90;;;;;;5055044;28;20174;-63
2024/02/03 01:31:42;;;;;;;1.33;1.23;;;2.90;99.90;;;;;;5054834;28;20194;-63
2024/02/03 01:34:08;;;;;;;2.93;1.27;;;2.90;99.90;;;;;;5054983;28;20166;-63
2024/02/03 01:36:33;;;;;;;1.53;1.43;;;2.90;99.90;;;;;;5054496;28;20269;-63
2024/02/03 01:38:59;;;;;;;1.73;1.63;;;3.00;99.90;;;;;;5054890;28;20822;-63
2024/02/03 01:41:25;;;;;;;2.50;2.30;;;3.00;99.90;;;;;;5054676;28;20261;-63
2024/02/03 01:43:50;;;;;;;1.87;1.67;;;3.00;99.90;;;;;;5054686;28;20202;-63
2024/02/03 01:46:17;;;;;;;1.30;1.20;;;3.10;99.90;;;;;;5052917;28;20724;-63
2024/02/03 01:48:43;;;;;;;3.03;1.33;;;3.00;99.90;;;;;;5054558;28;20228;-63
2024/02/03 01:51:10;;;;;;;1.83;1.30;;;3.00;99.90;;;;;;5054469;28;20605;-63
2024/02/03 01:53:36;;;;;;;1.10;0.68;;;3.00;99.90;;;;;;5054536;28;20677;-63
2024/02/03 01:56:02;;;;;;;1.43;1.30;;;3.00;99.90;;;;;;5054196;28;20205;-63
2024/02/03 01:58:28;;;;;;;1.52;1.13;;;3.00;99.90;;;;;;5054514;28;20259;-63
2024/02/03 02:00:54;;;;;;;1.90;1.80;;;2.90;99.90;;;;;;5054276;28;20712;-63
2024/02/03 02:03:20;;;;;;;1.60;1.02;;;2.80;99.90;;;;;;5054364;28;20197;-63
2024/02/03 02:05:46;;;;;;;1.70;1.60;;;2.90;99.90;;;;;;5054234;28;20216;-63
2024/02/03 02:08:12;;;;;;;2.30;1.53;;;2.90;99.90;;;;;;5053990;28;20204;-63
2024/02/03 02:10:38;;;;;;;2.40;2.00;;;2.90;99.90;;;;;;5054106;28;20475;-63
2024/02/03 02:13:04;;;;;;;2.15;1.20;;;2.90;99.90;;;;;;5054150;28;20269;-63
2024/02/03 02:15:30;;;;;;;3.40;1.73;;;2.90;99.90;;;;;;5054081;28;20252;-63
2024/02/03 02:17:59;;;;;;;2.72;1.65;;;3.00;99.90;;;;;;5053913;28;20427;-63
2024/02/03 02:20:25;;;;;;;2.92;2.13;;;2.90;99.90;;;;;;5054213;28;20202;-63
2024/02/03 02:22:51;;;;;;;1.63;1.20;;;2.90;99.90;;;;;;5054114;28;20213;-63
2024/02/03 02:25:16;;;;;;;2.00;1.90;;;2.90;99.90;;;;;;5053902;28;20412;-63
2024/02/03 02:27:42;;;;;;;5.60;1.60;;;2.90;99.90;;;;;;5053488;28;20194;-63
2024/02/03 02:30:08;;;;;;;2.30;1.40;;;3.00;99.90;;;;;;5052351;28;20178;-63
2024/02/03 02:32:34;;;;;;;2.08;1.67;;;3.00;99.90;;;;;;5053779;28;20305;-63
2024/02/03 02:34:59;;;;;;;1.43;1.33;;;3.00;99.90;;;;;;5052882;28;20252;-63
2024/02/03 02:37:26;;;;;;;1.43;1.30;;;2.90;99.90;;;;;;5053341;28;20207;-63
2024/02/03 02:39:51;;;;;;;1.15;1.02;;;2.80;99.90;;;;;;5053704;28;20166;-63
2024/02/03 02:42:19;;;;;;;1.90;1.20;;;2.70;99.90;;;;;;5053467;28;20177;-63
2024/02/03 02:44:45;;;;;;;1.60;1.15;;;2.60;99.90;;;;;;5053479;28;20182;-63
2024/02/03 02:47:11;;;;;;;2.73;1.57;;;2.70;99.90;;;;;;5053161;28;20200;-63
2024/02/03 02:49:36;;;;;;;1.90;1.37;;;2.80;99.90;;;;;;5053387;28;20174;-63
2024/02/03 02:52:02;;;;;;;1.47;1.27;;;2.90;99.90;;;;;;5053438;28;20211;-63
2024/02/03 02:54:28;;;;;;;1.93;1.43;;;2.90;99.90;;;;;;5053426;28;20165;-63
2024/02/03 02:56:53;;;;;;;4.00;1.57;;;2.80;99.90;;;;;;5052990;28;20200;-63
2024/02/03 02:59:20;;;;;;;2.43;2.20;;;2.80;99.90;;;;;;5053288;28;20170;-63
2024/02/03 03:01:45;;;;;;;1.50;1.40;;;2.80;99.90;;;;;;5053186;28;20185;-63
2024/02/03 03:04:11;;;;;;;1.90;0.97;;;2.80;99.90;;;;;;5052114;28;20185;-63
2024/02/03 03:06:36;;;;;;;0.93;0.93;;;2.80;99.90;;;;;;5052750;28;20579;-63
2024/02/03 03:09:02;;;;;;;1.23;1.10;;;2.80;99.90;;;;;;5053062;28;20558;-63
2024/02/03 03:11:28;;;;;;;1.47;1.00;;;2.80;99.90;;;;;;5052791;28;20212;-63
2024/02/03 03:13:53;;;;;;;1.60;1.23;;;2.80;99.90;;;;;;5053384;28;20166;-63
2024/02/03 03:16:19;;;;;;;3.43;1.47;;;2.80;99.90;;;;;;5052601;28;20266;-63
2024/02/03 03:18:45;;;;;;;2.10;1.23;;;2.70;99.90;;;;;;5052973;28;20165;-63
2024/02/03 03:21:11;;;;;;;1.63;1.40;;;2.60;99.90;;;;;;5052856;28;20166;-63
2024/02/03 03:23:37;;;;;;;2.58;1.48;;;2.50;99.90;;;;;;5052907;28;20183;-63
2024/02/03 03:26:02;;;;;;;2.27;1.40;;;2.50;99.90;;;;;;5052282;28;20670;-63
2024/02/03 03:28:28;;;;;;;3.70;2.07;;;2.50;99.90;;;;;;5052718;28;20206;-63
2024/02/03 03:30:54;;;;;;;1.50;1.40;;;2.60;99.90;;;;;;5052513;28;20214;-63
2024/02/03 03:33:19;;;;;;;1.03;1.03;;;2.60;99.90;;;;;;5052586;28;20205;-63
2024/02/03 03:35:45;;;;;;;1.40;1.30;;;2.70;99.90;;;;;;5052513;28;20170;-63
2024/02/03 03:38:14;;;;;;;1.20;1.10;;;2.60;99.90;;;;;;5052234;28;20189;-63
2024/02/03 03:40:39;;;;;;;2.78;1.65;;;2.60;99.90;;;;;;5052335;28;20170;-63
2024/02/03 03:43:05;;;;;;;1.70;1.60;;;2.60;99.90;;;;;;5052370;28;20177;-63
2024/02/03 03:45:31;;;;;;;1.90;1.70;;;2.60;99.90;;;;;;5052380;28;20257;-63
2024/02/03 03:47:58;;;;;;;4.22;1.55;;;2.50;99.90;;;;;;5052071;28;20239;-63
2024/02/03 03:50:24;;;;;;;2.95;1.70;;;2.40;99.90;;;;;;5052235;28;20209;-63
2024/02/03 03:52:50;;;;;;;2.47;2.27;;;2.50;99.90;;;;;;5052292;28;20183;-63
2024/02/03 03:55:16;;;;;;;2.00;1.30;;;2.60;99.90;;;;;;5051454;28;20488;-63
2024/02/03 03:57:42;;;;;;;2.28;2.13;;;2.60;99.90;;;;;;5051806;28;20190;-63
2024/02/03 04:00:11;;;;;;;1.43;1.10;;;2.60;99.90;;;;;;5052142;28;20261;-63
2024/02/03 04:02:36;;;;;;;2.78;1.60;;;2.60;99.90;;;;;;5052137;28;20419;-63
2024/02/03 04:05:03;;;;;;;1.10;1.00;;;2.70;99.90;;;;;;5052029;28;20181;-63
2024/02/03 04:07:29;;;;;;;1.30;1.10;;;2.70;99.90;;;;;;5051518;28;20427;-63
2024/02/03 04:09:54;;;;;;;1.50;1.40;;;2.70;99.90;;;;;;5051823;28;20174;-63
2024/02/03 04:12:20;;;;;;;1.70;1.57;;;2.70;99.90;;;;;;5051715;28;20205;-63
2024/02/03 04:14:48;;;;;;;1.20;0.83;;;2.70;99.90;;;;;;5051882;28;20166;-63
2024/02/03 04:17:14;;;;;;;1.67;1.25;;;2.60;99.90;;;;;;5051438;28;20555;-63
2024/02/03 04:19:40;;;;;;;3.55;1.55;;;2.50;99.90;;;;;;5051856;28;20249;-63
2024/02/03 04:22:08;;;;;;;1.33;0.90;;;2.50;99.90;;;;;;5051622;28;20311;-63
2024/02/03 04:24:34;;;;;;;1.55;1.13;;;2.40;99.90;;;;;;5051678;28;20179;-63
2024/02/03 04:27:00;;;;;;;0.90;0.90;;;2.40;99.90;;;;;;5052375;28;20196;-63
2024/02/03 04:29:25;;;;;;;3.80;0.80;;;2.40;99.90;;;;;;5051874;28;20177;-63
2024/02/03 04:31:51;;;;;;;1.97;1.30;;;2.40;99.90;;;;;;5051564;28;20708;-63
2024/02/03 04:34:20;;;;;;;0.90;0.90;;;2.50;99.90;;;;;;5051560;28;20193;-63
2024/02/03 04:36:46;;;;;;;1.20;1.10;;;2.40;99.90;;;;;;5051083;28;20219;-63
2024/02/03 04:39:13;;;;;;;1.65;1.55;;;2.40;99.90;;;;;;5051510;28;20643;-63
2024/02/03 04:41:39;;;;;;;1.20;1.10;;;2.40;99.90;;;;;;5051429;28;20169;-63
2024/02/03 04:44:04;;;;;;;2.00;1.50;;;2.50;99.90;;;;;;5051460;28;20268;-63
2024/02/03 04:46:30;;;;;;;1.47;1.10;;;2.50;99.90;;;;;;5051085;28;20217;-63
2024/02/03 04:48:56;;;;;;;1.10;1.00;;;2.40;99.90;;;;;;5051421;28;20693;-63
2024/02/03 04:51:21;;;;;;;2.23;1.20;;;2.40;99.90;;;;;;5051173;28;20200;-63
2024/02/03 04:53:47;;;;;;;0.90;0.90;;;2.40;99.90;;;;;;5051288;28;20483;-63
2024/02/03 04:56:13;;;;;;;1.80;1.70;;;2.40;99.90;;;;;;5050140;28;20660;-63
2024/02/03 04:58:39;;;;;;;1.13;0.93;;;2.40;99.90;;;;;;5057761;28;20164;-63
2024/02/03 05:01:04;;;;;;;2.60;1.10;;;2.40;99.90;;;;;;5057910;28;20547;-63
2024/02/03 05:03:35;;;;;;;0.80;0.80;;;2.40;99.90;;;;;;5057884;28;20177;-63
2024/02/03 05:06:05;;;;;;;3.28;0.90;;;2.40;99.90;;;;;;5057341;28;20840;-63
2024/02/03 05:08:31;;;;;;;1.40;0.90;;;2.30;99.90;;;;;;5057826;28;20639;-63
2024/02/03 05:10:58;;;;;;;1.77;1.35;;;2.40;99.90;;;;;;5057546;28;20204;-64
2024/02/03 05:13:24;;;;;;;1.00;0.60;;;2.50;99.90;;;;;;5057729;28;20253;-63
2024/02/03 05:15:49;;;;;;;2.20;1.40;;;2.50;99.90;;;;;;5057501;28;20185;-66
2024/02/03 05:18:15;;;;;;;1.33;1.20;;;2.50;99.90;;;;;;5057747;28;20462;-67
2024/02/03 05:20:41;;;;;;;1.93;1.17;;;2.40;99.90;;;;;;5042787;28;20621;-67
2024/02/03 05:23:07;;;;;;;1.43;1.33;;;2.40;99.90;;;;;;5037416;28;20428;-67
2024/02/03 05:25:33;;;;;;;2.27;1.13;;;2.40;99.90;;;;;;5032629;28;20784;-68
2024/02/03 05:28:00;;;;;;;1.60;1.50;;;2.40;99.90;;;;;;5037503;28;20447;-67
2024/02/03 05:30:26;;;;;;;0.73;0.63;;;2.30;99.90;;;;;;5037615;28;20677;-67
2024/02/03 05:32:52;;;;;;;1.00;0.90;;;2.30;99.90;;;;;;5037710;28;20169;-71
2024/02/03 05:35:18;;;;;;;3.40;1.27;;;2.30;99.90;;;;;;5037548;28;20593;-67
2024/02/03 05:37:43;;;;;;;2.43;1.13;;;2.30;99.90;;;;;;5037199;28;20648;-66
2024/02/03 05:40:10;;;;;;;0.80;0.80;;;2.30;99.90;;;;;;5037410;28;20165;-67
2024/02/03 05:42:35;;;;;;;1.02;1.00;;;2.30;99.90;;;;;;5036328;28;20192;-67
2024/02/03 05:45:01;;;;;;;1.20;1.10;;;2.30;99.90;;;;;;5036836;28;20169;-67
2024/02/03 05:47:26;;;;;;;0.80;0.80;;;2.30;99.90;;;;;;5036616;28;20198;-68
2024/02/03 05:49:53;;;;;;;0.90;0.77;;;2.20;99.90;;;;;;5037265;28;20239;-68
2024/02/03 05:52:19;;;;;;;1.67;1.23;;;2.20;99.90;;;;;;5036696;28;20300;-67
2024/02/03 05:54:44;;;;;;;1.90;1.10;;;2.20;99.90;;;;;;5035849;28;20256;-68
2024/02/03 05:57:12;;;;;;;1.47;0.80;;;2.20;99.90;;;;;;5036372;28;20428;-68
2024/02/03 05:59:37;;;;;;;1.45;1.35;;;2.20;99.90;;;;;;5037362;28;20169;-67
2024/02/03 06:02:03;;;;;;;1.07;0.93;;;2.20;99.90;;;;;;5036931;28;20179;-67
2024/02/03 06:04:29;;;;;;;0.97;0.60;;;2.20;99.90;;;;;;5037452;28;20419;-67
2024/02/03 06:06:54;;;;;;;0.70;0.70;;;2.10;99.90;;;;;;5035746;28;20248;-68
2024/02/03 06:09:20;;;;;;;2.40;1.37;;;2.20;99.90;;;;;;5033855;28;20171;-67
2024/02/03 06:11:46;;;;;;;0.90;0.80;;;2.20;99.90;;;;;;5033995;28;20218;-67
2024/02/03 06:14:11;;;;;;;1.63;1.00;;;2.10;99.90;;;;;;5034176;28;20205;-68
2024/02/03 06:16:37;;;;;;;2.07;0.90;;;2.20;99.90;;;;;;5033884;28;20244;-67
2024/02/03 06:19:03;;;;;;;0.90;0.60;;;2.10;99.90;;;;;;5034144;28;20181;-68
2024/02/03 06:21:29;;;;;;;3.00;0.68;;;2.20;99.90;;;;;;5034118;28;20175;-67
2024/02/03 06:23:56;;;;;;;1.60;1.40;;;2.30;99.90;;;;;;5033997;28;20178;-67
2024/02/03 06:26:21;;;;;;;1.35;1.05;;;2.40;99.90;;;;;;5033627;28;20670;-68
2024/02/03 06:28:47;;;;;;;1.27;1.13;;;2.40;99.90;;;;;;5033956;28;20262;-67
2024/02/03 06:31:12;;;;;;;1.23;1.13;;;2.50;99.90;;;;;;5032438;28;20194;-67
2024/02/03 06:33:38;;;;;;;2.23;2.03;;;2.50;99.90;;;;;;5033881;28;20179;-68
2024/02/03 06:36:04;;;;;;;1.57;1.07;;;2.50;99.90;;;;;;5033457;28;20240;-67
2024/02/03 06:38:30;;;;;;;0.93;0.93;;;2.40;99.90;;;;;;5033859;28;20175;-68
2024/02/03 06:40:56;;;;;;;1.00;0.90;;;2.40;99.90;;;;;;5033698;28;20184;-67
2024/02/03 06:43:22;;;;;;;1.27;1.05;;;2.40;99.90;;;;;;5032377;28;20179;-67
2024/02/03 06:45:47;;;;;;;0.97;0.87;;;2.40;99.90;;;;;;5033519;28;20526;-68
2024/02/03 06:48:13;;;;;;;2.80;1.40;;;2.50;99.90;;;;;;5033389;28;20213;-67
2024/02/03 06:50:38;;;;;;;1.37;1.27;;;2.50;99.90;;;;;;5033440;28;20229;-68
2024/02/03 06:53:05;;;;;;;1.80;1.17;;;2.50;99.90;;;;;;5033442;28;20171;-67
2024/02/03 06:55:30;;;;;;;0.82;0.82;;;2.30;99.90;;;;;;5033474;28;20163;-67
2024/02/03 06:57:56;;;;;;;1.57;1.47;;;2.40;99.90;;;;;;5033109;28;20313;-67
2024/02/03 07:00:22;;;;;;;1.40;1.30;;;2.50;99.90;;;;;;5033283;28;20710;-67
2024/02/03 07:02:48;;;;;;;1.42;1.33;;;2.50;99.90;;;;;;5031923;28;20171;-68
2024/02/03 07:05:14;;;;;;;1.43;1.00;;;2.60;99.90;;;;;;5032316;28;20199;-68
2024/02/03 07:07:40;;;;;;;1.10;1.00;;;2.60;99.90;;;;;;5032815;28;20484;-68
2024/02/03 07:10:06;;;;;;;1.90;1.80;;;2.60;99.90;;;;;;5033196;28;20174;-67
2024/02/03 07:12:32;;;;;;;2.60;1.30;;;2.70;99.90;;;;;;5033071;28;20214;-68
2024/02/03 07:14:57;;;;;;;1.57;1.43;;;2.80;99.90;;;;;;5033004;28;20202;-68
2024/02/03 07:17:23;;;;;;;0.93;0.80;;;2.80;99.90;;;;;;5032634;28;20655;-68
2024/02/03 07:19:49;;;;;;;2.00;1.00;;;2.90;99.90;;;;;;5032625;28;20600;-67
2024/02/03 07:22:14;;;;;;;0.90;0.90;;;3.00;99.90;;;;;;5033068;28;20201;-67
2024/02/03 07:24:40;;;;;;;1.50;1.30;;;2.90;99.90;;;;;;5032915;28;20555;-67
2024/02/03 07:27:06;;;;;;;1.60;1.20;;;2.90;99.90;;;;;;5032437;28;20198;-67
2024/02/03 07:29:32;;;;;;;0.70;0.70;;;3.00;99.90;;;;;;5032808;28;20185;-68
2024/02/03 07:32:02;;;;;;;1.42;0.85;;;3.00;99.90;;;;;;5032684;28;21013;-67
2024/02/03 07:34:28;;;;;;;1.00;1.00;;;3.10;99.90;;;;;;5032705;28;20167;-68
2024/02/03 07:36:54;;;;;;;0.70;0.70;;;3.10;99.90;;;;;;5032450;28;20274;-68
2024/02/03 07:39:19;;;;;;;0.80;0.80;;;3.10;99.90;;;;;;5032631;28;20611;-67
2024/02/03 07:41:45;;;;;;;1.07;0.97;;;3.10;99.90;;;;;;5032591;28;20175;-67
2024/02/03 07:44:11;;;;;;;0.88;0.88;;;3.20;99.90;;;;;;5032439;28;20162;-68
2024/02/03 07:46:38;;;;;;;1.40;0.97;;;3.30;99.90;;;;;;5030817;28;20248;-68
2024/02/03 07:49:04;;;;;;;2.13;1.02;;;3.40;99.90;;;;;;5032481;28;20177;-68
2024/02/03 07:51:30;;;;;;;1.15;0.80;;;3.50;99.90;;;;;;5032240;28;20282;-67
2024/02/03 07:53:56;;;;;;;1.38;1.15;;;3.70;99.90;;;;;;5032386;28;20258;-68
2024/02/03 07:56:22;;;;;;;2.23;1.40;;;3.90;99.90;;;;;;5014287;28;20195;-68
2024/02/03 07:58:47;;;;;;;1.13;1.03;;;4.20;99.90;;;;;;5032183;28;20191;-67
2024/02/03 08:01:13;;;;;;;1.30;1.07;;;4.40;99.90;;;;;;5032496;28;20175;-68
2024/02/03 08:03:39;;;;;;;1.43;1.33;;;4.70;99.90;;;;;;5032132;28;20175;-68
2024/02/03 08:06:06;;;;;;;1.47;1.00;;;5.10;99.90;;;;;;5031754;28;20177;-68
2024/02/03 08:08:32;;;;;;;1.45;1.35;;;5.20;99.90;;;;;;5032147;28;20257;-68
2024/02/03 08:10:57;;;;;;;1.27;1.17;;;5.40;99.90;;;;;;5031811;28;20290;-68
2024/02/03 08:13:23;;;;;;;1.10;1.03;;;5.30;99.90;;;;;;5031930;28;20174;-68
2024/02/03 08:15:49;;;;;;;2.30;1.70;;;5.40;99.90;;;;;;5031909;28;20603;-68
2024/02/03 08:18:14;;;;;;;1.40;1.30;;;5.30;99.90;;;;;;5031871;28;20195;-68
2024/02/03 08:20:40;;;;;;;1.37;1.27;;;5.20;99.90;;;;;;5031861;28;20258;-68
2024/02/03 08:23:05;;;;;;;0.90;0.90;;;5.30;99.90;;;;;;5031977;28;20600;-68
2024/02/03 08:25:31;;;;;;;2.40;1.43;;;5.30;99.90;;;;;;5032145;28;20663;-67
2024/02/03 08:27:57;;;;;;;1.53;1.40;;;5.40;99.90;;;;;;5031342;28;20248;-68
2024/02/03 08:30:22;;;;;;;1.10;1.00;;;5.40;99.90;;;;;;5031719;28;20393;-68
2024/02/03 08:32:48;;;;;;;2.03;1.80;;;5.40;99.90;;;;;;5031054;28;20522;-68
2024/02/03 08:35:13;;;;;;;1.50;1.13;;;5.50;99.90;;;;;;5031576;28;20699;-68
2024/02/03 08:37:39;;;;;;;1.63;1.20;;;5.50;99.90;;;;;;5031379;28;20195;-68
2024/02/03 08:40:05;;;;;;;2.03;1.87;;;5.50;99.90;;;;;;5031558;28;20640;-68
2024/02/03 08:42:32;;;;;;;2.40;2.10;;;5.50;99.90;;;;;;5031455;28;20249;-68
2024/02/03 08:44:58;;;;;;;2.70;1.33;;;5.60;99.90;;;;;;5031518;28;20175;-68
2024/02/03 08:47:24;;;;;;;2.47;1.70;;;5.70;99.90;;;;;;5029806;28;20195;-68
2024/02/03 08:49:53;;;;;;;1.27;1.17;;;5.80;99.90;;;;;;5030403;28;20215;-68
2024/02/03 08:52:19;;;;;;;1.85;1.75;;;5.90;99.90;;;;;;5030342;28;20206;-68
2024/02/03 08:54:45;;;;;;;1.63;1.20;;;6.10;99.90;;;;;;5030072;28;20714;-68
2024/02/03 08:57:11;;;;;;;1.50;1.40;;;6.10;99.90;;;;;;5031176;28;20213;-69
2024/02/03 08:59:37;;;;;;;1.45;1.35;;;6.20;99.90;;;;;;5030095;28;20212;-68
2024/02/03 09:02:03;;;;;;;1.13;1.03;;;6.40;99.90;;;;;;5031396;28;20396;-68
2024/02/03 09:04:28;;;;;;;2.03;1.93;;;6.70;99.90;;;;;;5031336;28;20455;-68
2024/02/03 09:06:54;;;;;;;1.30;1.20;;;7.10;99.90;;;;;;5031004;28;20491;-68
2024/02/03 09:09:20;;;;;;;1.70;1.60;;;7.10;99.90;;;;;;5031323;28;20177;-68
2024/02/03 09:11:45;;;;;;;0.97;0.97;;;7.10;99.90;;;;;;5030952;28;20213;-68
2024/02/03 09:14:11;;;;;;;1.30;1.13;;;7.30;99.90;;;;;;5031285;28;20179;-68
2024/02/03 09:16:37;;;;;;;1.63;1.03;;;7.50;99.90;;;;;;5030861;28;20197;-68
2024/02/03 09:19:02;;;;;;;0.83;0.83;;;7.70;99.90;;;;;;5031274;28;20171;-68
2024/02/03 09:21:28;;;;;;;1.40;1.30;;;7.90;99.90;;;;;;5031125;28;20552;-68
2024/02/03 09:23:54;;;;;;;0.90;0.90;;;8.10;99.90;;;;;;5031128;28;20652;-68
2024/02/03 09:26:19;;;;;;;1.93;1.50;;;8.10;99.90;;;;;;5029494;28;20274;-67
2024/02/03 09:28:45;;;;;;;1.50;1.40;;;8.00;99.90;;;;;;5031102;28;20472;-67
2024/02/03 09:31:20;;;;;;;1.20;1.20;;;7.80;99.60;;;;;;5031190;28;20203;-67
2024/02/03 09:33:46;;;;;;;2.60;2.50;;;7.80;99.90;;;;;;5031060;28;20587;-67
2024/02/03 09:36:12;;;;;;;2.53;1.58;;;8.10;99.90;;;;;;5030675;28;20171;-68
2024/02/03 09:38:38;;;;;;;1.43;1.10;;;8.30;99.90;;;;;;5031062;28;20221;-67
2024/02/03 09:41:05;;;;;;;0.80;0.80;;;8.90;99.90;;;;;;5030817;28;20229;-67
2024/02/03 09:43:32;;;;;;;1.37;1.13;;;10.00;99.90;;;;;;5032613;28;20402;-68
2024/02/03 09:45:58;;;;;;;1.67;1.20;;;10.80;99.30;;;;;;5034416;28;20424;-67
2024/02/03 09:48:24;;;;;;;1.37;1.20;;;11.90;97.80;;;;;;5034570;28;20432;-68
2024/02/03 09:50:50;;;;;;;1.00;0.80;;;13.10;94.80;;;;;;5034565;28;20442;-68
2024/02/03 09:53:15;;;;;;;1.60;1.17;;;13.60;92.00;;;;;;5034528;28;20218;-67
2024/02/03 09:55:41;;;;;;;0.70;0.70;;;14.50;90.90;;;;;;5034932;28;20778;-67
2024/02/03 09:58:07;;;;;;;0.60;0.60;;;15.40;85.30;;;;;;5034270;28;20256;-67
2024/02/03 10:00:35;;;;;;;1.53;1.07;;;16.40;86.50;;;;;;5034474;28;20174;-67
2024/02/03 10:03:01;;;;;;;3.30;2.90;;;17.80;81.90;;;;;;5034711;28;20198;-68
2024/02/03 10:05:28;;;;;;;1.87;1.77;;;19.20;76.20;;;;;;5034327;28;20464;-68
2024/02/03 10:08:03;;;;;;;0.80;0.73;;;20.50;70.40;;;;;;5033842;28;20557;-68
2024/02/03 10:10:30;;;;;;;0.90;0.90;;;21.60;65.00;;;;;;5034121;28;20405;-68
2024/02/03 10:13:09;;;;;;;1.10;1.10;;;22.00;59.00;;;;;;5034090;28;20433;-68
2024/02/03 10:15:36;;;;;;;0.90;0.90;;;22.40;59.60;;;;;;5034168;28;20408;-68
2024/02/03 10:18:02;;;;;;;2.43;1.30;;;22.50;58.90;;;;;;5033758;28;20827;-67
2024/02/03 10:20:28;;;;;;;0.70;0.70;;;22.40;56.10;;;;;;5034924;28;20410;-68
2024/02/03 10:22:54;;;;;;;0.67;0.67;;;22.20;55.80;;;;;;5034047;28;20414;-68
2024/02/03 10:25:31;;;;;;;0.80;0.80;;;22.10;56.00;;;;;;5034002;28;20202;-68
2024/02/03 10:28:04;;;;;;;0.77;0.77;;;22.60;56.70;;;;;;5033639;28;20433;-68
2024/02/03 10:30:34;;;;;;;0.70;0.67;;;22.80;55.60;;;;;;5033936;28;20436;-68
2024/02/03 10:33:01;;;;;;;3.27;2.70;;;22.80;54.30;;;;;;5033849;28;20402;-68
2024/02/03 10:35:32;;;;;;;5.33;4.93;;;22.80;52.90;;;;;;5034086;28;20959;-68
2024/02/03 10:37:58;;;;;;;1.53;1.43;;;22.80;51.50;;;;;;5033362;28;20421;-67
2024/02/03 10:40:32;;;;;;;1.83;1.70;;;22.30;50.60;;;;;;5032310;28;20414;-67
2024/02/03 10:42:58;;;;;;;1.20;1.20;;;21.50;51.20;;;;;;5032548;28;20405;-67
2024/02/03 10:45:28;;;;;;;2.40;2.20;;;20.70;53.40;;;;;;5033546;28;20413;-67
2024/02/03 10:47:57;;;;;;;1.17;1.03;;;20.50;53.00;;;;;;5033179;28;20433;-67
2024/02/03 10:50:27;;;;;;;0.93;0.80;;;19.90;55.50;;;;;;5033619;28;20387;-67
2024/02/03 10:52:57;;;;;;;0.80;0.80;;;19.10;56.90;;;;;;5033496;28;20404;-67
2024/02/03 10:55:25;;;;;;;2.57;2.40;;;18.30;57.70;;;;;;5032800;28;20410;-67
2024/02/03 10:57:52;;;;;;;1.87;1.67;;;18.30;58.70;;;;;;5032998;28;20418;-67
2024/02/03 11:00:18;;;;;;;0.70;0.70;;;18.40;58.60;;;;;;5033256;28;20409;-67
2024/02/03 11:02:53;;;;;;;0.60;0.60;;;18.00;59.00;;;;;;5033282;28;20474;-67
2024/02/03 11:05:37;;;;;;;1.70;0.80;;;17.80;61.00;;;;;;5033244;28;20412;-67
2024/02/03 11:08:10;;;;;;;0.80;0.80;;;17.70;61.80;;;;;;5032951;28;20438;-66
2024/02/03 11:10:37;;;;;;;0.70;0.70;;;17.40;59.70;;;;;;5033047;28;20410;-67
2024/02/03 11:13:23;;;;;;;0.70;0.70;;;16.70;61.80;;;;;;5033178;28;20414;-67
2024/02/03 11:15:58;;;;;;;0.80;0.70;;;16.10;62.90;;;;;;5032977;28;20417;-66
2024/02/03 11:18:25;;;;;;;0.93;0.93;;;15.60;65.00;;;;;;5033118;28;20398;-67
2024/02/03 11:21:03;;;;;;;0.80;0.80;;;14.70;66.90;;;;;;5032991;28;20775;-67
2024/02/03 11:23:29;;;;;;;0.87;0.87;;;14.20;68.90;;;;;;5033223;28;20906;-67
2024/02/03 11:25:55;;;;;;;0.83;0.83;;;13.90;71.00;;;;;;5032498;28;20409;-67
2024/02/03 11:28:20;;;;;;;0.60;0.60;;;13.40;72.10;;;;;;5032866;28;20171;-67
2024/02/03 11:30:46;;;;;;;0.97;0.97;;;13.10;78.80;;;;;;5032718;28;20476;-67
2024/02/03 11:33:12;;;;;;;0.90;0.90;;;12.70;76.10;;;;;;5032820;28;20241;-67
2024/02/03 11:35:37;;;;;;;2.30;1.00;;;12.60;79.00;;;;;;5032675;28;20163;-67
2024/02/03 11:38:07;;;;;;;1.67;1.07;;;12.60;79.50;;;;;;5032228;28;20432;-67
2024/02/03 11:40:41;;;;;;;1.47;0.77;;;12.60;78.90;;;;;;5032512;28;20178;-66
2024/02/03 11:43:06;;;;;;;0.93;0.80;;;12.60;80.10;;;;;;5032633;28;20425;-67
2024/02/03 11:45:34;;;;;;;1.13;0.90;;;12.70;80.40;;;;;;5032464;28;20778;-67
2024/02/03 11:48:02;;;;;;;0.77;0.70;;;12.70;78.60;;;;;;5032120;28;20667;-67
2024/02/03 11:50:28;;;;;;;0.87;0.60;;;12.60;80.10;;;;;;5033257;28;20406;-67
2024/02/03 11:52:55;;;;;;;1.70;1.33;;;12.70;79.30;;;;;;5032479;28;20406;-67
2024/02/03 11:55:21;;;;;;;0.70;0.70;;;12.60;79.20;;;;;;5031174;28;20517;-66
2024/02/03 11:57:46;;;;;;;0.80;0.80;;;12.50;79.30;;;;;;5031941;28;20422;-66
2024/02/03 12:00:14;;;;;;;1.10;0.80;;;12.50;80.20;;;;;;5032141;28;20618;-66
2024/02/03 12:02:39;;;;;;;0.80;0.80;;;12.50;80.50;;;;;;5032107;28;20167;-66
2024/02/03 12:05:05;;;;;;;1.13;0.93;;;12.30;81.90;;;;;;5032189;28;20421;-67
2024/02/03 12:07:31;;;;;;;0.90;0.90;;;12.30;80.30;;;;;;5030992;28;20190;-67
2024/02/03 12:09:57;;;;;;;0.83;0.67;;;12.40;80.10;;;;;;5032020;28;20496;-67
2024/02/03 12:12:24;;;;;;;0.70;0.70;;;12.40;80.50;;;;;;5031969;28;20320;-67
2024/02/03 12:14:50;;;;;;;0.80;0.80;;;12.40;79.50;;;;;;5030742;28;20521;-66
2024/02/03 12:17:16;;;;;;;1.83;0.83;;;12.30;82.50;;;;;;5031582;28;20508;-67
2024/02/03 12:19:42;;;;;;;1.17;0.93;;;12.40;82.10;;;;;;5032049;28;20532;-67
2024/02/03 12:22:07;;;;;;;0.77;0.73;;;12.30;80.60;;;;;;5031805;28;20458;-67
2024/02/03 12:24:33;;;;;;;0.63;0.63;;;12.20;81.30;;;;;;5031809;28;20178;-67
2024/02/03 12:26:59;;;;;;;1.67;1.20;;;12.30;80.70;;;;;;5031489;28;20241;-67
2024/02/03 12:29:25;;;;;;;1.23;0.90;;;12.30;81.70;;;;;;5031753;28;20163;-67
2024/02/03 12:31:51;;;;;;;0.97;0.83;;;12.30;81.80;;;;;;5031535;28;20980;-67
2024/02/03 12:34:16;;;;;;;0.80;0.80;;;12.30;80.90;;;;;;5031590;28;20167;-66
2024/02/03 12:36:44;;;;;;;0.87;0.87;;;12.10;81.10;;;;;;5031263;28;20186;-67
2024/02/03 12:39:10;;;;;;;1.20;1.10;;;12.00;81.80;;;;;;5031703;28;20446;-67
2024/02/03 12:41:35;;;;;;;0.80;0.63;;;12.00;83.40;;;;;;5031603;28;20463;-66
2024/02/03 12:44:01;;;;;;;0.60;0.60;;;11.70;83.50;;;;;;5031594;28;20178;-67
2024/02/03 12:46:27;;;;;;;0.70;0.70;;;11.40;85.50;;;;;;5031608;28;20191;-67
2024/02/03 12:48:52;;;;;;;0.70;0.70;;;11.30;86.90;;;;;;5031545;28;20176;-66
2024/02/03 12:51:18;;;;;;;0.73;0.70;;;11.10;89.30;;;;;;5031374;28;20190;-67